Stratford, IA

8:47 AM CDT on May 05, 2015 (GMT -0500)
Rural Stanhope | | Change Station
CLOSE
Current Station
Personal Weather Station
Location: Stanhope, IA
Elevation: 1080 ft
Nearby Weather Stations

Elev 1080 ft 42.25 °N, 93.74 °W | Updated 4 seconds ago

Overcast
Overcast
61.0 °F
Feels Like 61.0 °F
N
3.8
Wind Variable Wind from East
Gusts 4.5 mph

Today
High -- | Low -- °F
--% Chance of Precip.
Yesterday
High -- | Low -- °F
Precip. -- in
6:06 AM 8:19 PM
Full, 98% visible
Pressure 30.09 in
Visibility 0.2 miles
Clouds Overcast 200 ft
Dew Point 61 °F
Humidity 99%
Rainfall 0.07 in
Snow Depth Not available.
UV 1 out of 12
Pollen 4.80 out of 12
Air Quality Not available.
Flu Activity Local Activity
METAR KBNW 051335Z AUTO 18005KT M1/4SM FG OVC002 16/16 A3009 RMK AO2

More Conditions Fewer Conditions

Pressure 30.09 in
Visibility 0.2 miles
Clouds Overcast 200 ft
Dew Point 61 °F
Humidity 99%
Rainfall 0.07 in
Snow Depth Not available.
UV 1 out of 12
Pollen 4.80 out of 12
Air Quality Not available.
Flu Activity Local Activity
METAR KBNW 051335Z AUTO 18005KT M1/4SM FG OVC002 16/16 A3009 RMK AO2

More Conditions Fewer Conditions

Nepal has a long way to go to dig out and rebuild from a devastating earthquake. We have teamed up with several charities and organizations to make contributing to the relief effort as easy as possible.
How you can help: Portlight Strategies | Red Cross

10-Day Weather Forecast

Almanac

Astronomy

May. 05, 2015 Rise Set
Actual Time
Civil Twilight
Nautical Twilight
Astronomical Twilight
Moon
Length of Visible Light
Length of Day
Tomorrow will be .
, % of the Moon is Illuminated

Today's Extremes

State Highs State Lows

Community

WunderPhotos

Upload Photos

1,818,889 photos uploaded!

WunderBlogs® & News

Nearby

Air Quality

  Air Quality AQ Index Pollutant
Not available.

Snow Depth

Station Depth Elevation

Earthquake Activity

City Distance Mag. Time & Date
Minimum magnitude displayed is 2.5.

Coastal Water Temperatures

Place Temperature

Stations

Nearby Weather Stations

Station Location Temp. Windchill Dew Point Humidity Wind Precip. Elev Updated Type